createdAt,value
2018-01-15T00:00:46.524Z,1009.47
2018-01-15T00:01:46.476Z,1009.36
2018-01-15T00:02:46.459Z,1009.41
2018-01-15T00:03:46.397Z,1009.34
2018-01-15T00:04:46.353Z,1009.38
2018-01-15T00:05:46.317Z,1009.33
2018-01-15T00:06:46.327Z,1009.35
2018-01-15T00:07:46.229Z,1009.31
2018-01-15T00:08:46.188Z,1009.33
2018-01-15T00:09:46.147Z,1009.32
2018-01-15T00:10:46.101Z,1009.23
2018-01-15T00:11:46.061Z,1009.20
2018-01-15T00:12:46.021Z,1009.17
2018-01-15T00:13:45.988Z,1009.20
2018-01-15T00:14:45.942Z,1009.10
2018-01-15T00:15:45.905Z,1009.16
2018-01-15T00:16:45.867Z,1009.16
2018-01-15T00:17:45.813Z,1009.00
2018-01-15T00:18:45.819Z,1009.11
2018-01-15T00:19:45.727Z,1009.13
2018-01-15T00:20:45.684Z,1009.07
2018-01-15T00:21:45.643Z,1009.09
2018-01-15T00:22:45.604Z,1009.14
2018-01-15T00:23:45.559Z,1009.13
2018-01-15T00:24:45.520Z,1009.09
2018-01-15T00:25:45.478Z,1009.12
2018-01-15T00:26:45.460Z,1009.11
2018-01-15T00:27:45.410Z,1009.11
2018-01-15T00:28:45.356Z,1009.03
2018-01-15T00:29:45.309Z,1009.03
2018-01-15T00:30:45.269Z,1008.96
2018-01-15T00:31:45.240Z,1008.96
2018-01-15T00:32:45.184Z,1008.93
2018-01-15T00:33:45.143Z,1008.91
2018-01-15T00:34:45.099Z,1008.82
2018-01-15T00:35:45.059Z,1008.88
2018-01-15T00:36:45.015Z,1008.92
2018-01-15T00:37:44.975Z,1008.90
2018-01-15T00:38:44.932Z,1008.93
2018-01-15T00:39:44.887Z,1008.90
2018-01-15T00:40:44.846Z,1008.84
2018-01-15T00:41:44.805Z,1008.90
2018-01-15T00:42:44.765Z,1008.90
2018-01-15T00:43:44.722Z,1008.91
2018-01-15T00:44:44.686Z,1008.88
2018-01-15T00:45:44.639Z,1008.90
2018-01-15T00:46:44.597Z,1008.89
2018-01-15T00:47:44.556Z,1008.93
2018-01-15T00:48:44.512Z,1008.93
2018-01-15T00:49:44.471Z,1008.95
2018-01-15T00:50:44.430Z,1008.93
2018-01-15T00:51:44.386Z,1008.93
2018-01-15T00:52:44.344Z,1008.80
2018-01-15T00:53:44.304Z,1008.83
2018-01-15T00:54:44.261Z,1008.75
2018-01-15T00:55:44.221Z,1008.81
2018-01-15T00:56:44.176Z,1008.81
2018-01-15T00:57:44.141Z,1008.73
2018-01-15T00:58:44.093Z,1008.78
2018-01-15T00:59:44.051Z,1008.74
2018-01-15T01:00:44.009Z,1008.71
2018-01-15T01:01:44.827Z,1008.69
2018-01-15T01:02:43.923Z,1008.72
2018-01-15T01:03:43.882Z,1008.64
2018-01-15T01:04:43.845Z,1008.66
2018-01-15T01:05:43.819Z,1008.62
2018-01-15T01:06:43.770Z,1008.55
2018-01-15T01:07:43.712Z,1008.56
2018-01-15T01:08:43.673Z,1008.50
2018-01-15T01:09:43.631Z,1008.42
2018-01-15T01:10:43.587Z,1008.43
2018-01-15T01:11:43.549Z,1008.46
2018-01-15T01:12:43.506Z,1008.47
2018-01-15T01:13:43.474Z,1008.44
2018-01-15T01:14:43.466Z,1008.43
2018-01-15T01:15:43.379Z,1008.42
2018-01-15T01:16:43.334Z,1008.44
2018-01-15T01:17:43.294Z,1008.42
2018-01-15T01:18:43.252Z,1008.46
2018-01-15T01:19:43.210Z,1008.46
2018-01-15T01:20:43.172Z,1008.44
2018-01-15T01:21:43.128Z,1008.43
2018-01-15T01:22:43.088Z,1008.45
2018-01-15T01:23:43.044Z,1008.35
2018-01-15T01:24:43.010Z,1008.32
2018-01-15T01:25:42.960Z,1008.37
2018-01-15T01:26:42.920Z,1008.41
2018-01-15T01:27:42.877Z,1008.25
2018-01-15T01:28:42.836Z,1008.30
2018-01-15T01:29:42.791Z,1008.34
2018-01-15T01:30:42.755Z,1008.28
2018-01-15T01:31:42.733Z,1008.29
2018-01-15T01:32:42.690Z,1008.33
2018-01-15T01:33:42.628Z,1008.31
2018-01-15T01:34:42.587Z,1008.37
2018-01-15T01:35:42.545Z,1008.33
2018-01-15T01:36:42.523Z,1008.29
2018-01-15T01:37:42.461Z,1008.27
2018-01-15T01:38:42.421Z,1008.27
2018-01-15T01:39:42.378Z,1008.31
2018-01-15T01:40:42.338Z,1008.29
2018-01-15T01:41:42.320Z,1008.25
2018-01-15T01:42:42.253Z,1008.28
2018-01-15T01:43:42.239Z,1008.25
2018-01-15T01:44:42.170Z,1008.22
2018-01-15T01:45:42.175Z,1008.21
2018-01-15T01:46:42.089Z,1008.02
2018-01-15T01:47:42.055Z,1008.09
2018-01-15T01:48:42.006Z,1008.11
2018-01-15T01:49:41.963Z,1008.19
2018-01-15T01:50:41.938Z,1008.15
2018-01-15T01:51:41.879Z,1008.09
2018-01-15T01:52:41.846Z,1008.05
2018-01-15T01:53:41.815Z,1008.22
2018-01-15T01:54:41.796Z,1008.07
2018-01-15T01:55:41.715Z,1008.11
2018-01-15T01:56:41.697Z,1008.04
2018-01-15T01:57:41.662Z,1007.99
2018-01-15T01:58:41.592Z,1008.02
2018-01-15T01:59:41.555Z,1008.00
2018-01-15T02:00:41.514Z,1008.00
2018-01-15T02:01:41.467Z,1007.88
2018-01-15T02:02:41.438Z,1007.96
2018-01-15T02:03:41.390Z,1007.96
2018-01-15T02:04:41.373Z,1007.87
2018-01-15T02:05:41.304Z,1007.80
2018-01-15T02:06:41.261Z,1007.85
2018-01-15T02:07:41.218Z,1007.82
2018-01-15T02:08:41.187Z,1007.83
2018-01-15T02:09:41.139Z,1007.86
2018-01-15T02:10:41.093Z,1007.83
2018-01-15T02:11:41.070Z,1007.82
2018-01-15T02:12:41.019Z,1007.87
2018-01-15T02:13:40.970Z,1007.74
2018-01-15T02:14:40.926Z,1007.74
2018-01-15T02:15:40.887Z,1007.74
2018-01-15T02:16:40.846Z,1007.76
2018-01-15T02:17:40.805Z,1007.71
2018-01-15T02:18:40.789Z,1007.80
2018-01-15T02:19:40.754Z,1007.77
2018-01-15T02:20:40.682Z,1007.68
2018-01-15T02:21:40.639Z,1007.55
2018-01-15T02:22:40.643Z,1007.69
2018-01-15T02:23:40.603Z,1007.70
2018-01-15T02:24:40.512Z,1007.71
2018-01-15T02:25:40.512Z,1007.84
2018-01-15T02:26:40.443Z,1007.73
2018-01-15T02:27:40.405Z,1007.59
2018-01-15T02:28:40.346Z,1007.67
2018-01-15T02:29:40.308Z,1007.72
2018-01-15T02:30:40.279Z,1007.75
2018-01-15T02:31:40.229Z,1007.66
2018-01-15T02:32:40.182Z,1007.60
2018-01-15T02:33:40.144Z,1007.58
2018-01-15T02:34:40.125Z,1007.59
2018-01-15T02:35:40.058Z,1007.66
2018-01-15T02:36:40.018Z,1007.57
2018-01-15T02:37:39.985Z,1007.70
2018-01-15T02:38:39.937Z,1007.62
2018-01-15T02:39:39.893Z,1007.51
2018-01-15T02:40:39.855Z,1007.62
2018-01-15T02:41:39.819Z,1007.43
2018-01-15T02:42:39.770Z,1007.51
2018-01-15T02:43:39.730Z,1007.60
2018-01-15T02:44:39.687Z,1007.58
2018-01-15T02:45:39.649Z,1007.55
2018-01-15T02:46:39.639Z,1007.63
2018-01-15T02:47:39.566Z,1007.60
2018-01-15T02:48:39.530Z,1007.44
2018-01-15T02:49:39.493Z,1007.54
2018-01-15T02:50:39.451Z,1007.46
2018-01-15T02:51:39.400Z,1007.47
2018-01-15T02:52:39.355Z,1007.49
2018-01-15T02:53:39.339Z,1007.45
2018-01-15T02:54:39.278Z,1007.47
2018-01-15T02:55:39.257Z,1007.43
2018-01-15T02:56:39.203Z,1007.46
2018-01-15T02:57:39.151Z,1007.43
2018-01-15T02:58:39.112Z,1007.36
2018-01-15T02:59:39.069Z,1007.41
2018-01-15T03:00:39.031Z,1007.41
2018-01-15T03:01:38.985Z,1007.39
2018-01-15T03:02:38.959Z,1007.32
2018-01-15T03:03:38.907Z,1007.32
2018-01-15T03:04:38.874Z,1007.19
2018-01-15T03:05:38.852Z,1007.18
2018-01-15T03:06:38.804Z,1007.20
2018-01-15T03:07:38.764Z,1007.13
2018-01-15T03:08:38.697Z,1007.11
2018-01-15T03:09:38.656Z,1006.97
2018-01-15T03:10:38.617Z,1007.04
2018-01-15T03:11:38.584Z,1006.98
2018-01-15T03:12:38.531Z,1006.83
2018-01-15T03:13:38.491Z,1006.94
2018-01-15T03:14:38.447Z,1006.99
2018-01-15T03:15:38.408Z,1006.91
2018-01-15T03:16:38.367Z,1006.92
2018-01-15T03:17:38.325Z,1006.99
2018-01-15T03:18:38.287Z,1007.05
2018-01-15T03:19:38.244Z,1006.93
2018-01-15T03:20:38.205Z,1006.93
2018-01-15T03:21:38.162Z,1006.99
2018-01-15T03:22:38.121Z,1006.92
2018-01-15T03:23:38.079Z,1006.83
2018-01-15T03:24:38.034Z,1006.78
2018-01-15T03:25:37.997Z,1006.81
2018-01-15T03:26:37.962Z,1006.89
2018-01-15T03:27:37.936Z,1006.86
2018-01-15T03:28:37.893Z,1006.81
2018-01-15T03:29:37.832Z,1006.72
2018-01-15T03:30:37.790Z,1006.77
2018-01-15T03:31:37.748Z,1006.80
2018-01-15T03:32:37.708Z,1006.87
2018-01-15T03:33:37.668Z,1006.78
2018-01-15T03:34:37.630Z,1006.72
2018-01-15T03:35:37.583Z,1006.70
2018-01-15T03:36:37.546Z,1006.72
2018-01-15T03:37:37.504Z,1006.65
2018-01-15T03:38:37.463Z,1006.66
2018-01-15T03:39:37.420Z,1006.59
2018-01-15T03:40:37.379Z,1006.69
2018-01-15T03:41:37.338Z,1006.66
2018-01-15T03:42:37.295Z,1006.63
2018-01-15T03:43:37.257Z,1006.67
2018-01-15T03:44:37.215Z,1006.73
2018-01-15T03:45:37.195Z,1006.70
2018-01-15T03:46:37.133Z,1006.67
2018-01-15T03:47:37.092Z,1006.67
2018-01-15T03:48:37.050Z,1006.70
2018-01-15T03:49:37.009Z,1006.67
2018-01-15T03:50:36.968Z,1006.63
2018-01-15T03:51:36.930Z,1006.59
2018-01-15T03:52:36.883Z,1006.61
2018-01-15T03:53:36.845Z,1006.55
2018-01-15T03:54:36.821Z,1006.55
2018-01-15T03:55:36.761Z,1006.48
2018-01-15T03:56:36.737Z,1006.53
2018-01-15T03:57:36.681Z,1006.45
2018-01-15T03:58:36.641Z,1006.46
2018-01-15T03:59:36.594Z,1006.42
2018-01-15T04:00:36.555Z,1006.41
2018-01-15T04:01:36.517Z,1006.49
2018-01-15T04:02:36.505Z,1006.44
2018-01-15T04:03:36.429Z,1006.20
2018-01-15T04:04:36.388Z,1006.46
2018-01-15T04:05:36.372Z,1006.37
2018-01-15T04:06:36.313Z,1006.38
2018-01-15T04:07:36.278Z,1006.33
2018-01-15T04:08:36.224Z,1006.23
2018-01-15T04:09:36.212Z,1006.23
2018-01-15T04:10:36.152Z,1006.22
2018-01-15T04:11:36.102Z,1006.18
2018-01-15T04:12:36.061Z,1006.21
2018-01-15T04:13:36.033Z,1006.20
2018-01-15T04:14:35.980Z,1006.27
2018-01-15T04:15:35.955Z,1006.09
2018-01-15T04:16:35.902Z,1006.15
2018-01-15T04:17:35.864Z,1006.14
2018-01-15T04:18:35.815Z,1006.13
2018-01-15T04:19:35.772Z,1006.20
2018-01-15T04:20:35.749Z,1006.11
2018-01-15T04:21:35.690Z,1006.21
2018-01-15T04:22:35.648Z,1006.11
2018-01-15T04:23:35.611Z,1006.18
2018-01-15T04:24:35.566Z,1006.21
2018-01-15T04:25:35.528Z,1006.18
2018-01-15T04:26:35.533Z,1006.12
2018-01-15T04:27:35.444Z,1006.08
2018-01-15T04:28:35.431Z,1006.11
2018-01-15T04:29:35.359Z,1006.05
2018-01-15T04:30:35.319Z,1006.06
2018-01-15T04:31:35.279Z,1006.01
2018-01-15T04:32:35.241Z,1006.04
2018-01-15T04:33:35.216Z,1006.02
2018-01-15T04:34:35.156Z,1006.00
2018-01-15T04:35:35.112Z,1005.94
2018-01-15T04:36:35.086Z,1005.95
2018-01-15T04:37:35.044Z,1005.88
2018-01-15T04:38:34.986Z,1005.88
2018-01-15T04:39:34.943Z,1005.96
2018-01-15T04:40:34.903Z,1005.97
2018-01-15T04:41:34.889Z,1005.84
2018-01-15T04:42:34.821Z,1006.00
2018-01-15T04:43:34.800Z,1005.98
2018-01-15T04:44:35.347Z,1005.93
2018-01-15T04:45:35.310Z,1005.97
2018-01-15T04:46:35.388Z,1005.99
2018-01-15T04:47:34.612Z,1005.99
2018-01-15T04:48:34.577Z,1005.90
2018-01-15T04:49:34.538Z,1005.88
2018-01-15T04:50:34.541Z,1005.89
2018-01-15T04:51:34.454Z,1005.76
2018-01-15T04:52:34.403Z,1005.88
2018-01-15T04:53:34.386Z,1005.84
2018-01-15T04:54:34.330Z,1005.75
2018-01-15T04:55:34.278Z,1005.83
2018-01-15T04:56:34.238Z,1005.73
2018-01-15T04:57:34.195Z,1005.82
2018-01-15T04:58:34.155Z,1005.77
2018-01-15T04:59:34.121Z,1005.81
2018-01-15T05:00:34.073Z,1005.77
2018-01-15T05:01:34.029Z,1005.77
2018-01-15T05:02:33.988Z,1005.73
2018-01-15T05:03:33.966Z,1005.70
2018-01-15T05:04:33.905Z,1005.72
2018-01-15T05:05:33.870Z,1005.63
2018-01-15T05:06:33.821Z,1005.67
2018-01-15T05:07:33.779Z,1005.68
2018-01-15T05:08:33.742Z,1005.60
2018-01-15T05:09:33.700Z,1005.60
2018-01-15T05:10:33.655Z,1005.54
2018-01-15T05:11:33.614Z,1005.60
2018-01-15T05:12:33.589Z,1005.55
2018-01-15T05:13:33.539Z,1005.53
2018-01-15T05:14:33.486Z,1005.54
2018-01-15T05:15:33.456Z,1005.47
2018-01-15T05:16:33.404Z,1005.50
2018-01-15T05:17:33.394Z,1005.42
2018-01-15T05:18:33.343Z,1005.52
2018-01-15T05:19:33.279Z,1005.51
2018-01-15T05:20:33.256Z,1005.49
2018-01-15T05:21:33.195Z,1005.47
2018-01-15T05:22:33.629Z,1005.44
2018-01-15T05:23:33.118Z,1005.39
2018-01-15T05:24:33.109Z,1005.44
2018-01-15T05:25:33.031Z,1005.42
2018-01-15T05:26:32.986Z,1005.45
2018-01-15T05:27:32.946Z,1005.44
2018-01-15T05:28:32.902Z,1005.34
2018-01-15T05:29:32.879Z,1005.31
2018-01-15T05:30:32.839Z,1005.31
2018-01-15T05:31:32.775Z,1005.30
2018-01-15T05:32:32.735Z,1005.27
2018-01-15T05:33:32.695Z,1005.27
2018-01-15T05:34:32.657Z,1005.20
2018-01-15T05:35:32.633Z,1005.26
2018-01-15T05:36:32.570Z,1005.23
2018-01-15T05:37:32.528Z,1005.23
2018-01-15T05:38:32.489Z,1005.24
2018-01-15T05:39:32.447Z,1005.22
2018-01-15T05:40:32.403Z,1005.15
2018-01-15T05:41:32.391Z,1005.21
2018-01-15T05:42:32.374Z,1005.20
2018-01-15T05:43:32.281Z,1005.12
2018-01-15T05:44:32.245Z,1005.09
2018-01-15T05:45:32.194Z,1005.11
2018-01-15T05:46:32.147Z,1005.01
2018-01-15T05:47:32.129Z,1005.12
2018-01-15T05:48:32.068Z,1005.10
2018-01-15T05:49:32.039Z,1005.03
2018-01-15T05:50:31.983Z,1005.05
2018-01-15T05:51:31.963Z,1004.85
2018-01-15T05:52:31.928Z,1004.97
2018-01-15T05:53:31.888Z,1004.93
2018-01-15T05:54:31.821Z,1005.06
2018-01-15T05:55:31.775Z,1004.95
2018-01-15T05:56:31.736Z,1004.89
2018-01-15T05:57:31.693Z,1004.90
2018-01-15T05:58:31.650Z,1004.89
2018-01-15T05:59:31.606Z,1004.93
2018-01-15T06:00:31.584Z,1004.83
2018-01-15T06:01:31.524Z,1004.89
2018-01-15T06:02:31.481Z,1004.97
2018-01-15T06:03:31.439Z,1004.89
2018-01-15T06:04:31.396Z,1004.89
2018-01-15T06:05:31.358Z,1004.87
2018-01-15T06:06:31.318Z,1004.81
2018-01-15T06:07:31.273Z,1004.88
2018-01-15T06:08:31.242Z,1004.81
2018-01-15T06:09:31.191Z,1004.87
2018-01-15T06:10:31.150Z,1004.76
2018-01-15T06:11:31.105Z,1004.81
2018-01-15T06:12:31.065Z,1004.77
2018-01-15T06:13:31.024Z,1004.78
2018-01-15T06:14:30.988Z,1004.69
2018-01-15T06:15:30.943Z,1004.77
2018-01-15T06:16:30.897Z,1004.70
2018-01-15T06:17:30.856Z,1004.72
2018-01-15T06:18:30.812Z,1004.63
2018-01-15T06:19:30.774Z,1004.64
2018-01-15T06:20:30.729Z,1004.54
2018-01-15T06:21:30.688Z,1004.46
2018-01-15T06:22:30.650Z,1004.39
2018-01-15T06:23:30.606Z,1004.51
2018-01-15T06:24:30.575Z,1004.47
2018-01-15T06:25:30.523Z,1004.41
2018-01-15T06:26:30.480Z,1004.41
2018-01-15T06:27:30.435Z,1004.47
2018-01-15T06:28:30.395Z,1004.41
2018-01-15T06:29:30.353Z,1004.40
2018-01-15T06:30:30.315Z,1004.41
2018-01-15T06:31:30.271Z,1004.29
2018-01-15T06:32:30.230Z,1004.14
2018-01-15T06:33:30.187Z,1004.29
2018-01-15T06:34:30.146Z,1004.18
2018-01-15T06:35:30.105Z,1004.35
2018-01-15T06:36:30.062Z,1004.34
2018-01-15T06:37:30.021Z,1004.38
2018-01-15T06:38:29.980Z,1004.31
2018-01-15T06:39:29.938Z,1004.35
2018-01-15T06:40:29.897Z,1004.20
2018-01-15T06:41:29.854Z,1004.30
2018-01-15T06:42:29.815Z,1004.26
2018-01-15T06:43:29.770Z,1004.26
2018-01-15T06:44:29.729Z,1004.28
2018-01-15T06:45:29.686Z,1004.19
2018-01-15T06:46:29.646Z,1004.18
2018-01-15T06:47:29.612Z,1004.12
2018-01-15T06:48:29.562Z,1004.09
2018-01-15T06:49:29.531Z,1004.07
2018-01-15T06:50:29.480Z,1004.08
2018-01-15T06:51:29.437Z,1004.02
2018-01-15T06:52:29.395Z,1004.03
2018-01-15T06:53:29.355Z,1003.96
2018-01-15T06:54:29.311Z,1003.87
2018-01-15T06:55:29.269Z,1003.93
2018-01-15T06:56:29.230Z,1003.89
2018-01-15T06:57:29.188Z,1003.87
2018-01-15T06:58:29.146Z,1003.88
2018-01-15T06:59:29.103Z,1003.81
2018-01-15T07:00:29.061Z,1003.79
2018-01-15T07:01:29.022Z,1003.78
2018-01-15T07:02:28.981Z,1003.78
2018-01-15T07:03:28.938Z,1003.83
2018-01-15T07:04:28.896Z,1003.85
2018-01-15T07:05:28.857Z,1003.85
2018-01-15T07:06:28.813Z,1003.87
2018-01-15T07:07:28.770Z,1003.80
2018-01-15T07:08:28.731Z,1003.79
2018-01-15T07:09:28.689Z,1003.81
2018-01-15T07:10:28.666Z,1003.87
2018-01-15T07:11:28.603Z,1003.90
2018-01-15T07:12:28.563Z,1003.76
2018-01-15T07:13:28.523Z,1003.78
2018-01-15T07:14:28.481Z,1003.79
2018-01-15T07:15:28.436Z,1003.82
2018-01-15T07:16:28.397Z,1003.84
2018-01-15T07:17:28.355Z,1003.75
2018-01-15T07:18:28.314Z,1003.80
2018-01-15T07:19:28.271Z,1003.77
2018-01-15T07:20:28.230Z,1003.68
2018-01-15T07:21:28.193Z,1003.70
2018-01-15T07:22:28.147Z,1003.68
2018-01-15T07:23:28.105Z,1003.64
2018-01-15T07:24:28.066Z,1003.57
2018-01-15T07:25:28.023Z,1003.61
2018-01-15T07:26:27.980Z,1003.75
2018-01-15T07:27:27.941Z,1003.64
2018-01-15T07:28:27.898Z,1003.66
2018-01-15T07:29:27.857Z,1003.61
2018-01-15T07:30:27.818Z,1003.52
2018-01-15T07:31:27.773Z,1003.56
2018-01-15T07:32:27.733Z,1003.62
2018-01-15T07:33:27.693Z,1003.55
2018-01-15T07:34:27.651Z,1003.55
2018-01-15T07:35:27.611Z,1003.51
2018-01-15T07:36:27.565Z,1003.54
2018-01-15T07:37:27.525Z,1003.54
2018-01-15T07:38:27.499Z,1003.53
2018-01-15T07:39:27.440Z,1003.61
2018-01-15T07:40:27.401Z,1003.56
2018-01-15T07:41:27.359Z,1003.60
2018-01-15T07:42:27.318Z,1003.56
2018-01-15T07:43:27.276Z,1003.58
2018-01-15T07:44:27.234Z,1003.59
2018-01-15T07:45:27.195Z,1003.52
2018-01-15T07:46:27.152Z,1003.61
2018-01-15T07:47:27.110Z,1003.60
2018-01-15T07:48:27.071Z,1003.51
2018-01-15T07:49:27.034Z,1003.53
2018-01-15T07:50:26.987Z,1003.53
2018-01-15T07:51:26.944Z,1003.60
2018-01-15T07:52:26.901Z,1003.67
2018-01-15T07:53:26.865Z,1003.57
2018-01-15T07:54:26.821Z,1003.51
2018-01-15T07:55:26.781Z,1003.48
2018-01-15T07:56:26.739Z,1003.57
2018-01-15T07:57:26.696Z,1003.47
2018-01-15T07:58:26.658Z,1003.47
2018-01-15T07:59:26.619Z,1003.46
2018-01-15T08:00:26.576Z,1003.44
2018-01-15T08:01:26.536Z,1003.32
2018-01-15T08:02:26.493Z,1003.42
2018-01-15T08:03:26.453Z,1003.39
2018-01-15T08:04:26.415Z,1003.36
2018-01-15T08:05:26.373Z,1003.37
2018-01-15T08:06:26.332Z,1003.32
2018-01-15T08:07:26.288Z,1003.34
2018-01-15T08:08:26.249Z,1003.39
2018-01-15T08:09:26.266Z,1003.31
2018-01-15T08:10:26.169Z,1003.35
2018-01-15T08:11:26.128Z,1003.34
2018-01-15T08:12:26.086Z,1003.37
2018-01-15T08:13:26.046Z,1003.28
2018-01-15T08:14:26.005Z,1003.32
2018-01-15T08:15:25.967Z,1003.24
2018-01-15T08:16:25.927Z,1003.28
2018-01-15T08:17:25.884Z,1003.24
2018-01-15T08:18:25.846Z,1003.24
2018-01-15T08:19:25.802Z,1003.22
2018-01-15T08:20:25.761Z,1003.25
2018-01-15T08:21:25.719Z,1003.24
2018-01-15T08:22:25.685Z,1003.18
2018-01-15T08:23:25.639Z,1003.22
2018-01-15T08:24:25.600Z,1003.17
2018-01-15T08:25:25.559Z,1003.15
2018-01-15T08:26:25.517Z,1003.20
2018-01-15T08:27:25.511Z,1003.13
2018-01-15T08:28:25.436Z,1003.10
2018-01-15T08:29:25.394Z,1003.12
2018-01-15T08:30:25.354Z,1003.11
2018-01-15T08:31:25.311Z,1003.08
2018-01-15T08:32:25.288Z,1003.05
2018-01-15T08:33:25.231Z,1003.08
2018-01-15T08:34:25.191Z,1003.08
2018-01-15T08:35:25.153Z,1003.07
2018-01-15T08:36:25.109Z,1003.05
2018-01-15T08:37:25.069Z,1002.98
2018-01-15T08:38:25.028Z,1002.98
2018-01-15T08:39:24.984Z,1002.98
2018-01-15T08:40:24.951Z,1003.01
2018-01-15T08:41:24.905Z,1002.85
2018-01-15T08:42:24.871Z,1002.97
2018-01-15T08:43:24.826Z,1002.95
2018-01-15T08:44:24.786Z,1002.88
2018-01-15T08:45:24.744Z,1002.89
2018-01-15T08:46:24.703Z,1002.87
2018-01-15T08:47:24.663Z,1002.84
2018-01-15T08:48:24.621Z,1002.76
2018-01-15T08:49:24.580Z,1002.87
2018-01-15T08:50:24.542Z,1002.78
2018-01-15T08:51:24.502Z,1002.81
2018-01-15T08:52:24.461Z,1002.81
2018-01-15T08:53:24.421Z,1002.72
2018-01-15T08:54:24.379Z,1002.73
2018-01-15T08:55:24.340Z,1002.66
2018-01-15T08:56:24.300Z,1002.63
2018-01-15T08:57:24.259Z,1002.73
2018-01-15T08:58:24.219Z,1002.73
2018-01-15T08:59:24.177Z,1002.63
2018-01-15T09:00:24.136Z,1002.61
2018-01-15T09:01:24.098Z,1002.63
2018-01-15T09:02:24.057Z,1002.69
2018-01-15T09:03:24.018Z,1002.61
2018-01-15T09:04:23.977Z,1002.59
2018-01-15T09:05:23.936Z,1002.58
2018-01-15T09:06:23.897Z,1002.66
2018-01-15T09:07:23.857Z,1002.59
2018-01-15T09:08:23.818Z,1002.60
2018-01-15T09:09:23.779Z,1002.63
2018-01-15T09:10:23.739Z,1002.65
2018-01-15T09:11:23.699Z,1002.58
2018-01-15T09:12:23.658Z,1002.52
2018-01-15T09:13:23.618Z,1002.56
2018-01-15T09:14:23.577Z,1002.52
2018-01-15T09:15:23.540Z,1002.47
2018-01-15T09:16:23.500Z,1002.48
2018-01-15T09:17:23.461Z,1002.41
2018-01-15T09:18:23.423Z,1002.45
2018-01-15T09:19:23.381Z,1002.45
2018-01-15T09:20:23.343Z,1002.40
2018-01-15T09:21:23.303Z,1002.45
2018-01-15T09:22:23.261Z,1002.35
2018-01-15T09:23:23.228Z,1002.41
2018-01-15T09:24:23.185Z,1002.43
2018-01-15T09:25:23.142Z,1002.36
2018-01-15T09:26:23.108Z,1002.39
2018-01-15T09:27:23.066Z,1002.41
2018-01-15T09:28:23.028Z,1002.44
2018-01-15T09:29:22.987Z,1002.36
2018-01-15T09:30:22.950Z,1002.29
2018-01-15T09:31:22.910Z,1002.30
2018-01-15T09:32:22.870Z,1002.28
2018-01-15T09:33:22.832Z,1002.31
2018-01-15T09:34:22.792Z,1002.24
2018-01-15T09:35:22.754Z,1002.30
2018-01-15T09:36:22.717Z,1002.22
2018-01-15T09:37:22.679Z,1002.21
2018-01-15T09:38:22.639Z,1002.15
2018-01-15T09:39:22.601Z,1002.16
2018-01-15T09:40:22.563Z,1002.09
2018-01-15T09:41:22.521Z,1002.11
2018-01-15T09:42:22.485Z,1002.10
2018-01-15T09:43:22.444Z,1002.11
2018-01-15T09:44:22.407Z,1002.02
2018-01-15T09:45:22.369Z,1002.08
2018-01-15T09:46:22.331Z,1002.00
2018-01-15T09:47:22.293Z,1002.09
2018-01-15T09:48:22.254Z,1002.11
2018-01-15T09:49:22.214Z,1002.13
2018-01-15T09:50:22.179Z,1002.07
2018-01-15T09:51:22.140Z,1002.17
2018-01-15T09:52:22.103Z,1002.15
2018-01-15T09:53:22.065Z,1002.18
2018-01-15T09:54:22.025Z,1002.10
2018-01-15T09:55:21.989Z,1002.10
2018-01-15T09:56:21.951Z,1002.09
2018-01-15T09:57:21.917Z,1002.08
2018-01-15T09:58:21.879Z,1002.11
2018-01-15T09:59:21.839Z,1002.09
2018-01-15T10:00:21.807Z,1002.07
2018-01-15T10:01:21.774Z,1002.07
2018-01-15T10:02:21.727Z,1002.06
2018-01-15T10:03:21.699Z,1002.00
2018-01-15T10:04:21.655Z,1001.95
2018-01-15T10:05:21.616Z,1001.94
2018-01-15T10:06:21.577Z,1001.89
2018-01-15T10:07:21.542Z,1001.84
2018-01-15T10:08:21.503Z,1001.85
2018-01-15T10:09:21.465Z,1001.87
2018-01-15T10:10:21.424Z,1001.81
2018-01-15T10:11:21.392Z,1001.85
2018-01-15T10:12:21.357Z,1001.79
2018-01-15T10:13:21.321Z,1001.77
2018-01-15T10:14:21.281Z,1001.77
2018-01-15T10:15:21.241Z,1001.71
2018-01-15T10:16:21.208Z,1001.70
2018-01-15T10:17:21.166Z,1001.63
2018-01-15T10:18:21.127Z,1001.66
2018-01-15T10:19:21.090Z,1001.68
2018-01-15T10:20:21.065Z,1001.78
2018-01-15T10:21:21.015Z,1001.59
2018-01-15T10:22:20.972Z,1001.65
2018-01-15T10:23:20.939Z,1001.55
2018-01-15T10:24:20.900Z,1001.56
2018-01-15T10:25:20.865Z,1001.55
2018-01-15T10:26:20.822Z,1001.55
2018-01-15T10:27:20.787Z,1001.56
2018-01-15T10:28:20.802Z,1001.59
2018-01-15T10:29:20.712Z,1001.45
2018-01-15T10:30:20.676Z,1001.54
2018-01-15T10:31:20.633Z,1001.36
2018-01-15T10:32:20.596Z,1001.36
2018-01-15T10:33:20.558Z,1001.42
2018-01-15T10:34:20.521Z,1001.32
2018-01-15T10:35:20.499Z,1001.28
2018-01-15T10:36:20.443Z,1001.27
2018-01-15T10:37:20.405Z,1001.24
2018-01-15T10:38:20.396Z,1001.31
2018-01-15T10:39:20.328Z,1001.26
2018-01-15T10:40:20.292Z,1001.23
2018-01-15T10:41:20.254Z,1001.14
2018-01-15T10:42:20.215Z,1001.10
2018-01-15T10:43:20.175Z,1001.08
2018-01-15T10:44:20.136Z,1000.93
2018-01-15T10:45:20.101Z,1000.92
2018-01-15T10:46:20.062Z,1000.89
2018-01-15T10:47:20.023Z,1000.85
2018-01-15T10:48:19.985Z,1000.81
2018-01-15T10:49:19.953Z,1000.76
2018-01-15T10:50:19.908Z,1000.73
2018-01-15T10:51:19.869Z,1000.65
2018-01-15T10:52:19.832Z,1000.71
2018-01-15T10:53:19.813Z,1000.64
2018-01-15T10:54:19.757Z,1000.59
2018-01-15T10:55:19.716Z,1000.60
2018-01-15T10:56:19.677Z,1000.50
2018-01-15T10:57:19.658Z,1000.62
2018-01-15T10:58:19.604Z,1000.66
2018-01-15T10:59:19.566Z,1000.60
2018-01-15T11:00:19.533Z,1000.53
2018-01-15T11:01:19.517Z,1000.60
2018-01-15T11:02:19.452Z,1000.57
2018-01-15T11:03:19.410Z,1000.56
2018-01-15T11:04:19.445Z,1000.51
2018-01-15T11:05:19.336Z,1000.51
2018-01-15T11:06:19.302Z,1000.50
2018-01-15T11:07:19.258Z,1000.48
2018-01-15T11:08:19.221Z,1000.43
2018-01-15T11:09:19.212Z,1000.41
2018-01-15T11:10:19.146Z,1000.33
2018-01-15T11:11:19.121Z,1000.29
2018-01-15T11:12:19.075Z,1000.32
2018-01-15T11:13:19.033Z,1000.28
2018-01-15T11:14:18.987Z,1000.25
2018-01-15T11:15:18.960Z,1000.25
2018-01-15T11:16:18.953Z,1000.16
2018-01-15T11:17:18.888Z,1000.16
2018-01-15T11:18:18.839Z,1000.12
2018-01-15T11:19:18.800Z,1000.14
2018-01-15T11:20:18.761Z,1000.10
2018-01-15T11:21:18.732Z,1000.15
2018-01-15T11:22:18.707Z,999.79
2018-01-15T11:23:18.644Z,999.92
2018-01-15T11:24:18.624Z,999.85
2018-01-15T11:25:18.570Z,999.89
2018-01-15T11:26:18.532Z,999.87
2018-01-15T11:27:18.494Z,999.70
2018-01-15T11:28:18.456Z,999.77
2018-01-15T11:29:18.467Z,999.74
2018-01-15T11:30:18.376Z,999.68
2018-01-15T11:31:18.341Z,999.70
2018-01-15T11:32:18.301Z,999.53
2018-01-15T11:33:18.287Z,999.46
2018-01-15T11:34:18.226Z,999.46
2018-01-15T11:35:18.184Z,999.49
2018-01-15T11:36:18.150Z,999.29
2018-01-15T11:37:18.121Z,999.31
2018-01-15T11:38:18.072Z,999.24
2018-01-15T11:39:18.033Z,999.16
2018-01-15T11:40:17.995Z,999.16
2018-01-15T11:41:17.961Z,999.11
2018-01-15T11:42:17.950Z,999.17
2018-01-15T11:43:17.881Z,999.08
2018-01-15T11:44:17.887Z,999.10
2018-01-15T11:45:17.819Z,998.99
2018-01-15T11:46:17.767Z,999.06
2018-01-15T11:47:17.728Z,998.99
2018-01-15T11:48:17.690Z,998.92
2018-01-15T11:49:17.659Z,998.82
2018-01-15T11:50:17.615Z,998.92
2018-01-15T11:51:17.575Z,998.92
2018-01-15T11:52:17.541Z,998.90
2018-01-15T11:53:17.498Z,998.76
2018-01-15T11:54:17.463Z,998.72
2018-01-15T11:55:17.423Z,998.64
2018-01-15T11:56:17.390Z,998.80
2018-01-15T11:57:17.346Z,998.66
2018-01-15T11:58:17.309Z,998.57
2018-01-15T11:59:17.269Z,998.72
2018-01-15T12:00:17.247Z,998.55
2018-01-15T12:01:17.194Z,998.50
2018-01-15T12:02:17.153Z,998.57
2018-01-15T12:03:17.110Z,998.50
2018-01-15T12:04:17.092Z,998.36
2018-01-15T12:05:17.037Z,998.34
2018-01-15T12:06:17.007Z,998.31
2018-01-15T12:07:16.963Z,998.30